createdAt,value
2019-03-05T00:01:19.804Z,6.46
2019-03-05T00:06:24.019Z,6.53
2019-03-05T00:11:28.239Z,6.51
2019-03-05T00:16:32.553Z,6.58
2019-03-05T00:21:36.768Z,6.51
2019-03-05T00:26:40.985Z,6.50
2019-03-05T00:31:45.284Z,6.54
2019-03-05T00:37:02.735Z,6.57
2019-03-05T00:42:47.004Z,6.60
2019-03-05T00:48:22.073Z,6.63
2019-03-05T00:54:05.648Z,6.72
2019-03-05T00:59:32.398Z,6.68
2019-03-05T01:05:17.432Z,6.68
2019-03-05T01:10:21.847Z,6.69
2019-03-05T01:15:26.290Z,6.75
2019-03-05T01:20:30.513Z,6.75
2019-03-05T01:25:34.930Z,6.80
2019-03-05T01:32:01.732Z,6.81
2019-03-05T01:37:02.654Z,6.79
2019-03-05T01:42:07.776Z,6.72
2019-03-05T01:47:11.994Z,6.68
2019-03-05T01:52:16.227Z,6.63
2019-03-05T01:57:20.443Z,6.58
2019-03-05T02:02:24.657Z,6.53
2019-03-05T02:07:28.877Z,6.48
2019-03-05T02:12:33.128Z,6.49
2019-03-05T02:17:37.373Z,6.47
2019-03-05T02:22:51.722Z,6.43
2019-03-05T02:28:26.364Z,6.44
2019-03-05T02:34:14.655Z,6.38
2019-03-05T02:40:11.965Z,6.36
2019-03-05T02:46:12.724Z,6.21
2019-03-05T02:52:10.173Z,6.17
2019-03-05T02:57:12.667Z,6.07
2019-03-05T03:02:34.594Z,5.96
2019-03-05T03:07:38.801Z,5.94
2019-03-05T03:12:43.678Z,5.90
2019-03-05T03:17:48.736Z,5.82
2019-03-05T03:22:53.056Z,5.79
2019-03-05T03:27:57.347Z,5.82
2019-03-05T03:33:01.581Z,5.86
2019-03-05T03:38:05.796Z,5.87
2019-03-05T03:43:10.046Z,5.99
2019-03-05T03:48:14.462Z,6.16
2019-03-05T03:53:18.691Z,6.24
2019-03-05T03:58:22.920Z,6.33
2019-03-05T04:03:27.181Z,6.44
2019-03-05T04:08:38.925Z,6.47
2019-03-05T04:13:43.190Z,6.57
2019-03-05T04:18:47.411Z,6.54
2019-03-05T04:23:51.731Z,6.57
2019-03-05T04:28:55.942Z,6.56
2019-03-05T04:34:00.213Z,6.55
2019-03-05T04:39:06.539Z,6.52
2019-03-05T04:44:10.786Z,6.53
2019-03-05T04:49:30.809Z,6.53
2019-03-05T04:54:35.025Z,6.47
2019-03-05T04:59:39.233Z,6.43
2019-03-05T05:04:43.453Z,6.44
2019-03-05T05:09:47.687Z,6.36
2019-03-05T05:14:51.902Z,6.29
2019-03-05T05:19:56.117Z,6.29
2019-03-05T05:25:00.362Z,6.33
2019-03-05T05:30:04.937Z,6.30
2019-03-05T05:35:09.170Z,6.30
2019-03-05T05:40:30.614Z,6.36
2019-03-05T05:45:38.525Z,6.34
2019-03-05T05:50:42.746Z,6.36
2019-03-05T05:55:47.144Z,6.40
2019-03-05T06:00:56.619Z,6.28
2019-03-05T06:06:01.017Z,6.33
2019-03-05T06:11:05.469Z,6.35
2019-03-05T06:16:09.688Z,6.40
2019-03-05T06:21:13.901Z,6.36
2019-03-05T06:26:18.127Z,6.36
2019-03-05T06:31:22.369Z,6.47
2019-03-05T06:36:26.823Z,6.33
2019-03-05T06:41:31.060Z,6.47
2019-03-05T06:46:35.311Z,6.42
2019-03-05T06:51:39.511Z,6.40
2019-03-05T06:56:43.736Z,6.54
2019-03-05T07:01:47.959Z,6.52
2019-03-05T07:06:59.298Z,6.52
2019-03-05T07:12:11.020Z,6.51
2019-03-05T07:17:22.596Z,6.54
2019-03-05T07:22:46.117Z,6.69
2019-03-05T07:27:54.115Z,6.68
2019-03-05T07:32:59.775Z,6.79
2019-03-05T07:38:04.219Z,6.90
2019-03-05T07:43:08.433Z,7.13
2019-03-05T07:48:12.665Z,7.11
2019-03-05T07:53:16.909Z,7.19
2019-03-05T07:58:21.130Z,7.31
2019-03-05T08:03:25.371Z,7.35
2019-03-05T08:09:07.295Z,7.42
2019-03-05T08:14:57.550Z,7.38
2019-03-05T08:20:01.775Z,7.56
2019-03-05T08:25:07.936Z,7.42
2019-03-05T08:30:14.943Z,7.59
2019-03-05T08:35:19.339Z,7.55
2019-03-05T08:40:23.989Z,7.67
2019-03-05T08:45:29.733Z,7.77
2019-03-05T08:50:34.111Z,7.69
2019-03-05T08:55:38.451Z,7.56
2019-03-05T09:00:42.678Z,7.53
2019-03-05T09:05:47.098Z,7.77
2019-03-05T09:10:52.745Z,7.92
2019-03-05T09:15:56.968Z,8.14
2019-03-05T09:21:01.220Z,8.14
2019-03-05T09:26:05.650Z,7.63
2019-03-05T09:31:09.888Z,7.66
2019-03-05T09:36:14.155Z,8.10
2019-03-05T09:41:18.398Z,7.73
2019-03-05T09:46:22.631Z,7.75
2019-03-05T09:51:26.969Z,7.71
2019-03-05T09:56:31.186Z,7.21
2019-03-05T10:01:35.626Z,7.31
2019-03-05T10:06:39.842Z,7.18
2019-03-05T10:11:44.066Z,7.58
2019-03-05T10:16:48.494Z,7.80
2019-03-05T10:21:52.938Z,8.31
2019-03-05T10:26:57.391Z,8.14
2019-03-05T10:32:01.810Z,8.52
2019-03-05T10:37:12.633Z,8.31
2019-03-05T10:42:12.261Z,8.42
2019-03-05T10:47:16.813Z,9.26
2019-03-05T10:52:21.038Z,9.67
2019-03-05T10:57:25.261Z,9.05
2019-03-05T11:02:29.589Z,9.07
2019-03-05T11:07:34.016Z,9.38
2019-03-05T11:12:39.263Z,9.10
2019-03-05T11:17:43.474Z,9.62
2019-03-05T11:22:48.298Z,9.03
2019-03-05T11:27:52.536Z,8.76
2019-03-05T11:32:56.813Z,8.78
2019-03-05T11:38:01.095Z,9.59
2019-03-05T11:43:13.631Z,8.92
2019-03-05T11:48:18.163Z,8.68
2019-03-05T11:53:22.739Z,8.85
2019-03-05T11:58:26.964Z,8.63
2019-03-05T12:03:31.280Z,8.56
2019-03-05T12:08:35.494Z,8.71
2019-03-05T12:13:39.726Z,8.60
2019-03-05T12:18:43.959Z,8.13
2019-03-05T12:23:48.388Z,9.54
2019-03-05T12:28:52.706Z,11.12
2019-03-05T12:33:56.946Z,12.15
2019-03-05T12:39:01.206Z,13.75
2019-03-05T12:44:05.586Z,11.93
2019-03-05T12:49:09.776Z,11.91
2019-03-05T12:54:13.986Z,10.91
2019-03-05T12:59:18.206Z,11.87
2019-03-05T13:04:22.468Z,12.46
2019-03-05T13:09:26.749Z,11.86
2019-03-05T13:14:31.137Z,9.91
2019-03-05T13:19:35.668Z,7.48
2019-03-05T13:24:40.296Z,8.48
2019-03-05T13:29:44.523Z,11.11
2019-03-05T13:34:48.772Z,11.36
2019-03-05T13:39:54.975Z,12.01
2019-03-05T13:44:59.284Z,11.38
2019-03-05T13:50:27.514Z,11.16
2019-03-05T13:56:04.002Z,10.53
2019-03-05T14:01:10.254Z,9.01
2019-03-05T14:06:48.188Z,9.38
2019-03-05T14:11:53.666Z,9.57
2019-03-05T14:17:18.581Z,9.15
2019-03-05T14:22:22.831Z,8.98
2019-03-05T14:27:27.131Z,8.99
2019-03-05T14:32:31.400Z,8.82
2019-03-05T14:37:35.669Z,8.54
2019-03-05T14:42:40.038Z,8.50
2019-03-05T14:47:44.255Z,8.50
2019-03-05T14:52:48.503Z,8.45
2019-03-05T14:57:52.743Z,8.62
2019-03-05T15:02:56.975Z,8.74
2019-03-05T15:08:02.188Z,8.80
2019-03-05T15:13:15.387Z,8.91
2019-03-05T15:18:12.385Z,8.65
2019-03-05T15:23:16.731Z,8.56
2019-03-05T15:28:20.968Z,8.46
2019-03-05T15:33:25.255Z,8.41
2019-03-05T15:38:29.559Z,8.29
2019-03-05T15:43:33.831Z,8.36
2019-03-05T15:48:38.026Z,8.32
2019-03-05T15:53:42.323Z,8.02
2019-03-05T15:58:47.435Z,7.70
2019-03-05T16:03:51.660Z,7.46
2019-03-05T16:08:57.948Z,7.41
2019-03-05T16:14:01.898Z,7.04
2019-03-05T16:19:06.213Z,7.02
2019-03-05T16:24:10.447Z,6.96
2019-03-05T16:29:16.207Z,7.12
2019-03-05T16:34:36.327Z,6.81
2019-03-05T16:39:52.027Z,5.16
2019-03-05T16:45:08.915Z,4.43
2019-03-05T16:50:38.599Z,4.44
2019-03-05T16:56:03.407Z,4.72
2019-03-05T17:01:21.581Z,4.85
2019-03-05T17:06:43.568Z,4.89
2019-03-05T17:11:54.866Z,4.97
2019-03-05T17:16:59.131Z,5.27
2019-03-05T17:22:03.394Z,5.22
2019-03-05T17:27:07.659Z,5.24
2019-03-05T17:32:12.105Z,5.32
2019-03-05T17:37:16.556Z,5.26
2019-03-05T17:42:20.814Z,5.25
2019-03-05T17:47:25.106Z,5.26
2019-03-05T17:52:29.361Z,5.28
2019-03-05T17:57:33.604Z,5.26
2019-03-05T18:02:37.864Z,5.20
2019-03-05T18:07:42.222Z,5.13
2019-03-05T18:12:46.478Z,5.22
2019-03-05T18:17:51.477Z,5.28
2019-03-05T18:22:55.723Z,5.23
2019-03-05T18:28:00.081Z,5.27
2019-03-05T18:33:04.517Z,5.24
2019-03-05T18:38:08.830Z,5.29
2019-03-05T18:43:13.118Z,5.29
2019-03-05T18:48:17.371Z,5.28
2019-03-05T18:53:21.625Z,5.29
2019-03-05T18:58:25.880Z,5.42
2019-03-05T19:10:04.084Z,5.37
2019-03-05T19:15:09.444Z,5.35
2019-03-05T19:20:16.093Z,5.46
2019-03-05T19:25:25.608Z,5.46
2019-03-05T19:30:32.382Z,5.43
2019-03-05T19:35:37.338Z,5.41
2019-03-05T19:40:41.642Z,5.34
2019-03-05T19:45:45.957Z,5.27
2019-03-05T19:50:50.511Z,5.21
2019-03-05T19:55:54.801Z,5.18
2019-03-05T20:01:17.556Z,5.16
2019-03-05T20:06:22.368Z,5.14
2019-03-05T20:11:27.361Z,5.06
2019-03-05T20:16:32.203Z,5.04
2019-03-05T20:21:37.308Z,5.07
2019-03-05T20:26:42.084Z,4.97
2019-03-05T20:31:47.005Z,4.97
2019-03-05T20:36:52.099Z,5.07
2019-03-05T20:41:57.105Z,5.11
2019-03-05T20:47:02.227Z,5.01
2019-03-05T20:52:07.439Z,4.99
2019-03-05T20:57:12.712Z,4.85
2019-03-05T21:02:17.890Z,4.85
2019-03-05T21:07:23.067Z,4.74
2019-03-05T21:12:28.241Z,4.65
2019-03-05T21:17:33.152Z,4.58
2019-03-05T21:22:37.857Z,4.60
2019-03-05T21:27:43.369Z,4.57
2019-03-05T21:32:47.863Z,4.57
2019-03-05T21:37:52.677Z,4.59
2019-03-05T21:42:57.223Z,4.59
2019-03-05T21:48:01.685Z,4.63
2019-03-05T21:53:06.518Z,4.60
2019-03-05T21:58:10.780Z,4.52
2019-03-05T22:03:15.029Z,4.55
2019-03-05T22:08:19.306Z,4.61
2019-03-05T22:13:23.673Z,4.61
2019-03-05T22:18:29.662Z,4.53
2019-03-05T22:23:34.118Z,4.42
2019-03-05T22:28:38.396Z,4.48
2019-03-05T22:33:42.652Z,4.41
2019-03-05T22:38:46.899Z,4.36
2019-03-05T22:43:51.142Z,4.31
2019-03-05T22:48:55.405Z,4.34
2019-03-05T22:53:59.647Z,4.34
2019-03-05T22:59:03.891Z,4.30
2019-03-05T23:04:09.141Z,4.29
2019-03-05T23:09:19.532Z,4.27
2019-03-05T23:14:23.977Z,4.20
2019-03-05T23:19:29.083Z,4.21
2019-03-05T23:24:33.314Z,4.20
2019-03-05T23:29:42.044Z,4.16
2019-03-05T23:34:46.294Z,4.11
2019-03-05T23:39:50.555Z,4.10
2019-03-05T23:44:54.798Z,4.02
2019-03-05T23:49:59.042Z,4.00
2019-03-05T23:55:03.601Z,4.00
